Time;durP1;ratioP1;P1;durP2;ratioP2;P2;SDS_P1;SDS_P2;PMS_P1;PMS_P2;Temp;Humidity;BMP_temperature;BMP_pressure;BME280_temperature;BME280_humidity;BME280_pressure;Samples;Min_cycle;Max_cycle;Signal;HPM_P1;HPM_P2
2022/01/07 00:01:46;;;;;;;1.27;0.60;;;;;;;;;;1762075;79;26364;-32
2022/01/07 00:04:13;;;;;;;0.60;0.60;;;;;;;;;;1759345;81;26227;-31
2022/01/07 00:06:41;;;;;;;1.40;0.55;;;;;;;;;;1763600;80;26364;-31
2022/01/07 00:09:08;;;;;;;1.67;0.62;;;;;;;;;;1762648;79;26283;-33
2022/01/07 00:11:35;;;;;;;0.50;0.50;;;;;;;;;;1756716;80;26361;-38
2022/01/07 00:14:03;;;;;;;0.40;0.40;;;;;;;;;;1760117;80;26343;-31
2022/01/07 00:16:30;;;;;;;0.42;0.42;;;;;;;;;;1751658;80;26774;-32
2022/01/07 00:18:58;;;;;;;1.40;0.50;;;;;;;;;;1755955;80;26795;-36
2022/01/07 00:21:25;;;;;;;0.75;0.50;;;;;;;;;;1758629;81;26367;-35
2022/01/07 00:23:52;;;;;;;0.40;0.40;;;;;;;;;;1756559;80;26360;-33
2022/01/07 00:26:20;;;;;;;0.50;0.50;;;;;;;;;;1756005;80;27014;-35
2022/01/07 00:28:47;;;;;;;0.80;0.40;;;;;;;;;;1762973;81;26413;-37
2022/01/07 00:31:14;;;;;;;0.37;0.37;;;;;;;;;;1755502;81;26291;-39
2022/01/07 00:33:42;;;;;;;0.50;0.50;;;;;;;;;;1759910;80;26341;-37
2022/01/07 00:36:10;;;;;;;0.33;0.33;;;;;;;;;;1763158;80;26538;-34
2022/01/07 00:38:38;;;;;;;0.62;0.62;;;;;;;;;;1758383;79;26906;-33
2022/01/07 00:41:05;;;;;;;1.20;0.40;;;;;;;;;;1762467;80;26220;-31
2022/01/07 00:43:32;;;;;;;0.75;0.50;;;;;;;;;;1759671;80;26290;-34
2022/01/07 00:45:59;;;;;;;0.60;0.40;;;;;;;;;;1760989;80;26405;-33
2022/01/07 00:48:27;;;;;;;0.40;0.40;;;;;;;;;;1753351;80;26695;-34
2022/01/07 00:50:54;;;;;;;0.62;0.50;;;;;;;;;;1769475;81;26224;-31
2022/01/07 00:53:22;;;;;;;0.70;0.50;;;;;;;;;;1765784;79;26298;-35
2022/01/07 00:55:49;;;;;;;0.50;0.40;;;;;;;;;;1757137;79;26758;-32
2022/01/07 00:58:16;;;;;;;0.33;0.33;;;;;;;;;;1764929;80;26731;-32
2022/01/07 01:00:44;;;;;;;0.42;0.42;;;;;;;;;;1776593;79;26272;-32
2022/01/07 01:03:11;;;;;;;1.45;0.35;;;;;;;;;;1755310;80;26373;-32
2022/01/07 01:05:39;;;;;;;0.40;0.40;;;;;;;;;;1750616;81;26279;-33
2022/01/07 01:08:06;;;;;;;0.40;0.40;;;;;;;;;;1764417;79;26803;-33
2022/01/07 01:10:34;;;;;;;0.33;0.33;;;;;;;;;;1766942;79;26373;-36
2022/01/07 01:13:01;;;;;;;1.65;0.45;;;;;;;;;;1757145;80;25732;-31
2022/01/07 01:15:28;;;;;;;0.47;0.47;;;;;;;;;;1759059;80;26801;-34
2022/01/07 01:17:57;;;;;;;0.93;0.30;;;;;;;;;;1765439;80;26292;-31
2022/01/07 01:20:24;;;;;;;0.30;0.30;;;;;;;;;;1751594;80;26243;-34
2022/01/07 01:22:52;;;;;;;1.65;0.50;;;;;;;;;;1753964;80;26324;-31
2022/01/07 01:25:19;;;;;;;0.50;0.50;;;;;;;;;;1765425;80;26303;-32
2022/01/07 01:27:47;;;;;;;0.40;0.40;;;;;;;;;;1770346;80;26308;-38
2022/01/07 01:30:17;;;;;;;0.37;0.35;;;;;;;;;;1753211;80;26301;-35
2022/01/07 01:32:44;;;;;;;1.40;0.40;;;;;;;;;;1743391;80;26375;-31
2022/01/07 01:35:12;;;;;;;0.30;0.30;;;;;;;;;;1759995;81;26279;-32
2022/01/07 01:37:40;;;;;;;0.30;0.30;;;;;;;;;;1762824;79;26313;-35
2022/01/07 01:40:09;;;;;;;0.40;0.40;;;;;;;;;;1768911;80;26420;-31
2022/01/07 01:42:36;;;;;;;0.40;0.40;;;;;;;;;;1752761;80;27435;-34
2022/01/07 01:45:04;;;;;;;1.17;0.40;;;;;;;;;;1750254;80;26277;-32
2022/01/07 01:47:32;;;;;;;0.72;0.40;;;;;;;;;;1779634;79;26303;-34
2022/01/07 01:49:59;;;;;;;0.40;0.40;;;;;;;;;;1764547;80;26313;-34
2022/01/07 01:52:27;;;;;;;0.30;0.30;;;;;;;;;;1759070;80;26325;-40
2022/01/07 01:54:54;;;;;;;0.37;0.37;;;;;;;;;;1763395;78;26268;-35
2022/01/07 01:57:21;;;;;;;0.30;0.30;;;;;;;;;;1750080;80;26372;-33
2022/01/07 01:59:49;;;;;;;0.33;0.30;;;;;;;;;;1760733;79;26299;-38
2022/01/07 02:02:16;;;;;;;0.30;0.30;;;;;;;;;;1760304;79;26782;-37
2022/01/07 02:04:44;;;;;;;0.30;0.30;;;;;;;;;;1756518;79;26290;-35
2022/01/07 02:07:13;;;;;;;0.50;0.50;;;;;;;;;;1765124;79;26285;-35
2022/01/07 02:09:41;;;;;;;0.75;0.45;;;;;;;;;;1761373;79;26369;-33
2022/01/07 02:12:09;;;;;;;0.37;0.37;;;;;;;;;;1748116;80;26364;-34
2022/01/07 02:14:37;;;;;;;0.40;0.40;;;;;;;;;;1764818;80;26810;-35
2022/01/07 02:17:10;;;;;;;0.40;0.40;;;;;;;;;;1768139;80;26283;-33
2022/01/07 02:19:38;;;;;;;0.40;0.40;;;;;;;;;;1759816;79;26397;-37
2022/01/07 02:22:06;;;;;;;0.30;0.30;;;;;;;;;;1764451;79;26696;-34
2022/01/07 02:24:35;;;;;;;0.35;0.35;;;;;;;;;;1757862;79;26365;-34
2022/01/07 02:27:02;;;;;;;0.30;0.30;;;;;;;;;;1759868;79;26361;-34
2022/01/07 02:29:30;;;;;;;0.42;0.42;;;;;;;;;;1749785;79;26328;-36
2022/01/07 02:31:57;;;;;;;0.30;0.30;;;;;;;;;;1758541;80;26372;-34
2022/01/07 02:34:25;;;;;;;0.35;0.35;;;;;;;;;;1756818;79;26221;-34
2022/01/07 02:36:52;;;;;;;0.20;0.20;;;;;;;;;;1759286;79;26248;-32
2022/01/07 02:39:20;;;;;;;0.30;0.30;;;;;;;;;;1772244;79;26817;-33
2022/01/07 02:41:47;;;;;;;0.40;0.40;;;;;;;;;;1767973;80;26739;-32
2022/01/07 02:44:14;;;;;;;0.30;0.30;;;;;;;;;;1762147;79;26352;-33
2022/01/07 02:46:42;;;;;;;0.30;0.30;;;;;;;;;;1753878;80;26374;-36
2022/01/07 02:49:10;;;;;;;0.30;0.30;;;;;;;;;;1769713;79;26743;-38
2022/01/07 02:51:38;;;;;;;0.33;0.33;;;;;;;;;;1758925;80;26319;-39
2022/01/07 02:54:06;;;;;;;0.30;0.30;;;;;;;;;;1768247;79;26373;-35
2022/01/07 02:56:34;;;;;;;0.35;0.35;;;;;;;;;;1760321;79;26347;-32
2022/01/07 02:59:01;;;;;;;0.40;0.40;;;;;;;;;;1749176;80;26278;-35
2022/01/07 03:01:29;;;;;;;0.30;0.30;;;;;;;;;;1768280;79;26663;-34
2022/01/07 03:03:57;;;;;;;0.30;0.30;;;;;;;;;;1753635;80;26348;-33
2022/01/07 03:06:24;;;;;;;0.30;0.30;;;;;;;;;;1761895;79;26782;-34
2022/01/07 03:08:52;;;;;;;0.40;0.40;;;;;;;;;;1766182;79;26381;-32
2022/01/07 03:11:20;;;;;;;0.40;0.40;;;;;;;;;;1766282;79;26774;-35
2022/01/07 03:13:47;;;;;;;0.30;0.30;;;;;;;;;;1756407;80;26322;-32
2022/01/07 03:16:14;;;;;;;0.30;0.30;;;;;;;;;;1763129;80;26334;-36
2022/01/07 03:18:41;;;;;;;0.20;0.20;;;;;;;;;;1755913;80;26353;-33
2022/01/07 03:21:09;;;;;;;0.30;0.30;;;;;;;;;;1770358;80;26760;-32
2022/01/07 03:23:37;;;;;;;0.40;0.40;;;;;;;;;;1750189;80;26294;-34
2022/01/07 03:26:05;;;;;;;0.68;0.37;;;;;;;;;;1748645;80;26666;-31
2022/01/07 03:28:32;;;;;;;0.30;0.30;;;;;;;;;;1780856;79;26306;-35
2022/01/07 03:30:59;;;;;;;1.02;0.30;;;;;;;;;;1769623;79;26283;-31
2022/01/07 03:33:27;;;;;;;0.40;0.40;;;;;;;;;;1774966;79;26290;-33
2022/01/07 03:35:54;;;;;;;0.30;0.30;;;;;;;;;;1773891;79;26355;-37
2022/01/07 03:38:22;;;;;;;0.62;0.40;;;;;;;;;;1780157;79;26304;-36
2022/01/07 03:40:49;;;;;;;0.30;0.30;;;;;;;;;;1765329;79;26287;-38
2022/01/07 03:43:17;;;;;;;0.40;0.40;;;;;;;;;;1782555;79;26668;-30
2022/01/07 03:45:44;;;;;;;0.20;0.20;;;;;;;;;;1780352;79;26709;-31
2022/01/07 03:48:12;;;;;;;0.37;0.30;;;;;;;;;;1773553;79;26809;-34
2022/01/07 03:50:39;;;;;;;0.20;0.20;;;;;;;;;;1776134;79;26309;-36
2022/01/07 03:53:06;;;;;;;0.30;0.30;;;;;;;;;;1781095;79;26287;-34
2022/01/07 03:55:34;;;;;;;0.30;0.30;;;;;;;;;;1773500;79;26552;-34
2022/01/07 03:58:01;;;;;;;0.20;0.20;;;;;;;;;;1773670;80;26208;-46
2022/01/07 04:00:34;;;;;;;0.20;0.20;;;;;;;;;;1795782;79;26672;-32
2022/01/07 04:03:06;;;;;;;0.30;0.30;;;;;;;;;;1768455;79;26287;-31
2022/01/07 04:05:33;;;;;;;0.30;0.30;;;;;;;;;;1786788;79;26232;-32
2022/01/07 04:08:01;;;;;;;0.45;0.28;;;;;;;;;;1784185;79;26335;-35
2022/01/07 04:10:28;;;;;;;0.33;0.33;;;;;;;;;;1787976;79;26274;-32
2022/01/07 04:12:55;;;;;;;0.33;0.33;;;;;;;;;;1777710;79;26836;-31
2022/01/07 04:15:23;;;;;;;0.40;0.40;;;;;;;;;;1775831;79;26349;-36
2022/01/07 04:17:52;;;;;;;0.25;0.25;;;;;;;;;;1774345;79;26586;-33
2022/01/07 04:20:20;;;;;;;0.20;0.20;;;;;;;;;;1785700;79;26258;-32
2022/01/07 04:22:48;;;;;;;0.30;0.30;;;;;;;;;;1785127;79;26666;-33
2022/01/07 04:25:19;;;;;;;0.20;0.20;;;;;;;;;;1775872;79;26325;-35
2022/01/07 04:27:51;;;;;;;0.30;0.30;;;;;;;;;;1778286;79;26329;-33
2022/01/07 04:30:20;;;;;;;0.30;0.30;;;;;;;;;;1774487;79;26831;-34
2022/01/07 04:32:48;;;;;;;0.20;0.20;;;;;;;;;;1759769;79;26981;-33
2022/01/07 04:35:16;;;;;;;0.30;0.30;;;;;;;;;;1769978;79;26325;-31
2022/01/07 04:37:44;;;;;;;0.28;0.28;;;;;;;;;;1767528;79;26337;-32
2022/01/07 04:40:13;;;;;;;0.20;0.20;;;;;;;;;;1778486;79;26353;-33
2022/01/07 04:42:40;;;;;;;0.40;0.40;;;;;;;;;;1778002;79;26392;-34
2022/01/07 04:45:08;;;;;;;0.13;0.13;;;;;;;;;;1779863;79;26270;-37
2022/01/07 04:47:36;;;;;;;0.25;0.25;;;;;;;;;;1777477;79;26794;-33
2022/01/07 04:50:05;;;;;;;0.30;0.30;;;;;;;;;;1769445;79;26314;-33
2022/01/07 04:52:33;;;;;;;0.20;0.20;;;;;;;;;;1773024;79;26375;-33
2022/01/07 04:55:00;;;;;;;0.30;0.30;;;;;;;;;;1774536;79;26722;-33
2022/01/07 04:57:28;;;;;;;0.20;0.20;;;;;;;;;;1771683;79;26242;-35
2022/01/07 04:59:55;;;;;;;0.30;0.30;;;;;;;;;;1776719;79;26344;-32
2022/01/07 05:02:22;;;;;;;0.17;0.17;;;;;;;;;;1786717;78;26278;-33
2022/01/07 05:04:49;;;;;;;0.30;0.30;;;;;;;;;;1784413;79;26952;-34
2022/01/07 05:07:17;;;;;;;0.30;0.30;;;;;;;;;;1780702;79;26293;-32
2022/01/07 05:09:44;;;;;;;0.25;0.25;;;;;;;;;;1777794;79;26330;-37
2022/01/07 05:12:12;;;;;;;0.30;0.30;;;;;;;;;;1780105;79;26275;-37
2022/01/07 05:14:39;;;;;;;0.20;0.20;;;;;;;;;;1771138;79;26820;-33
2022/01/07 05:17:06;;;;;;;0.17;0.17;;;;;;;;;;1780251;79;26310;-34
2022/01/07 05:19:34;;;;;;;0.30;0.30;;;;;;;;;;1784834;79;26806;-36
2022/01/07 05:22:01;;;;;;;0.20;0.20;;;;;;;;;;1783608;79;26705;-33
2022/01/07 05:24:29;;;;;;;0.17;0.17;;;;;;;;;;1772798;79;26314;-33
2022/01/07 05:26:56;;;;;;;0.30;0.30;;;;;;;;;;1772002;79;26291;-37
2022/01/07 05:29:23;;;;;;;0.40;0.40;;;;;;;;;;1786346;79;26624;-33
2022/01/07 05:31:51;;;;;;;0.33;0.33;;;;;;;;;;1782747;79;26318;-34
2022/01/07 05:34:19;;;;;;;0.30;0.30;;;;;;;;;;1775047;79;26287;-32
2022/01/07 05:36:46;;;;;;;0.30;0.30;;;;;;;;;;1770189;79;26226;-33
2022/01/07 05:39:13;;;;;;;0.20;0.20;;;;;;;;;;1778930;78;26285;-34
2022/01/07 05:41:41;;;;;;;0.20;0.20;;;;;;;;;;1762345;79;26307;-33
2022/01/07 05:44:08;;;;;;;0.33;0.33;;;;;;;;;;1779960;79;26340;-33
2022/01/07 05:46:35;;;;;;;0.30;0.30;;;;;;;;;;1767072;79;26316;-34
2022/01/07 05:49:03;;;;;;;0.30;0.30;;;;;;;;;;1771361;79;26299;-34
2022/01/07 05:51:30;;;;;;;0.40;0.40;;;;;;;;;;1775511;79;26906;-37
2022/01/07 05:53:57;;;;;;;0.40;0.40;;;;;;;;;;1774690;80;26765;-30
2022/01/07 05:56:24;;;;;;;0.20;0.20;;;;;;;;;;1779778;79;26239;-33
2022/01/07 05:58:52;;;;;;;0.30;0.30;;;;;;;;;;1781890;79;26302;-34
2022/01/07 06:01:19;;;;;;;0.65;0.35;;;;;;;;;;1783057;79;26289;-31
2022/01/07 06:03:46;;;;;;;0.20;0.20;;;;;;;;;;1779874;79;26339;-32
2022/01/07 06:06:14;;;;;;;0.20;0.20;;;;;;;;;;1776904;79;26345;-31
2022/01/07 06:08:41;;;;;;;0.20;0.20;;;;;;;;;;1776980;79;26365;-31
2022/01/07 06:11:08;;;;;;;0.20;0.20;;;;;;;;;;1777600;79;26296;-33
2022/01/07 06:13:36;;;;;;;0.20;0.20;;;;;;;;;;1780705;79;26393;-33
2022/01/07 06:16:04;;;;;;;0.40;0.40;;;;;;;;;;1777039;79;26384;-33
2022/01/07 06:18:31;;;;;;;0.20;0.20;;;;;;;;;;1761764;79;26521;-38
2022/01/07 06:20:59;;;;;;;0.35;0.35;;;;;;;;;;1771792;79;26299;-36
2022/01/07 06:23:26;;;;;;;0.20;0.20;;;;;;;;;;1772085;79;26285;-34
2022/01/07 06:25:53;;;;;;;0.30;0.30;;;;;;;;;;1775279;79;26372;-33
2022/01/07 06:28:21;;;;;;;0.30;0.30;;;;;;;;;;1771228;79;26336;-33
2022/01/07 06:30:48;;;;;;;1.27;0.30;;;;;;;;;;1750652;80;26307;-34
2022/01/07 06:33:15;;;;;;;0.30;0.30;;;;;;;;;;1762489;79;26595;-33
2022/01/07 06:35:43;;;;;;;0.40;0.40;;;;;;;;;;1755772;80;26408;-32
2022/01/07 06:38:10;;;;;;;0.30;0.30;;;;;;;;;;1756294;79;26307;-31
2022/01/07 06:40:37;;;;;;;0.20;0.20;;;;;;;;;;1764022;80;26335;-33
2022/01/07 06:43:05;;;;;;;0.30;0.30;;;;;;;;;;1755040;80;26275;-34
2022/01/07 06:45:32;;;;;;;0.30;0.30;;;;;;;;;;1760883;79;26287;-33
2022/01/07 06:47:59;;;;;;;0.20;0.20;;;;;;;;;;1753622;79;26353;-34
2022/01/07 06:50:26;;;;;;;0.30;0.30;;;;;;;;;;1763538;81;26295;-35
2022/01/07 06:52:54;;;;;;;0.30;0.30;;;;;;;;;;1761516;80;26829;-34
2022/01/07 06:55:21;;;;;;;0.20;0.20;;;;;;;;;;1763420;80;26792;-33
2022/01/07 06:57:49;;;;;;;0.30;0.30;;;;;;;;;;1760201;79;26309;-31
2022/01/07 07:00:16;;;;;;;0.30;0.30;;;;;;;;;;1764937;79;26292;-33
2022/01/07 07:02:44;;;;;;;0.23;0.23;;;;;;;;;;1757492;80;26372;-32
2022/01/07 07:05:11;;;;;;;0.40;0.40;;;;;;;;;;1760537;79;26288;-33
2022/01/07 07:07:39;;;;;;;0.45;0.45;;;;;;;;;;1758897;79;26775;-33
2022/01/07 07:10:06;;;;;;;0.20;0.20;;;;;;;;;;1753845;79;26380;-37
2022/01/07 07:12:33;;;;;;;0.40;0.40;;;;;;;;;;1750554;80;26299;-34
2022/01/07 07:15:00;;;;;;;0.35;0.35;;;;;;;;;;1752829;79;26290;-32
2022/01/07 07:17:28;;;;;;;0.20;0.20;;;;;;;;;;1750458;80;26350;-33
2022/01/07 07:19:55;;;;;;;4.53;0.60;;;;;;;;;;1751071;79;26802;-32
2022/01/07 07:22:22;;;;;;;0.33;0.33;;;;;;;;;;1753345;80;26299;-32
2022/01/07 07:24:50;;;;;;;0.50;0.50;;;;;;;;;;1750605;80;26263;-34
2022/01/07 07:27:17;;;;;;;0.23;0.23;;;;;;;;;;1751763;80;26298;-31
2022/01/07 07:29:45;;;;;;;0.20;0.20;;;;;;;;;;1747156;80;26396;-31
2022/01/07 07:32:15;;;;;;;0.30;0.30;;;;;;;;;;1745551;80;26292;-32
2022/01/07 07:35:01;;;;;;;0.45;0.45;;;;;;;;;;1728928;80;26351;-33
2022/01/07 07:37:26;;;;;;;0.30;0.30;;;;;;;;;;1738547;80;26380;-35
2022/01/07 07:39:53;;;;;;;0.35;0.35;;;;;;;;;;1749553;80;26305;-35
2022/01/07 07:42:21;;;;;;;0.30;0.30;;;;;;;;;;1742421;81;26261;-32
2022/01/07 07:44:48;;;;;;;0.40;0.40;;;;;;;;;;1764011;80;26722;-33
2022/01/07 07:47:16;;;;;;;0.30;0.30;;;;;;;;;;1740511;80;26841;-34
2022/01/07 07:49:43;;;;;;;0.40;0.40;;;;;;;;;;1748385;80;26352;-34
2022/01/07 07:52:10;;;;;;;0.30;0.30;;;;;;;;;;1746064;80;26850;-32
2022/01/07 07:54:37;;;;;;;1.00;0.23;;;;;;;;;;1748064;80;26769;-38
2022/01/07 07:57:05;;;;;;;0.37;0.37;;;;;;;;;;1743635;80;26286;-37
2022/01/07 07:59:32;;;;;;;0.20;0.20;;;;;;;;;;1749039;80;26348;-36
2022/01/07 08:02:01;;;;;;;0.40;0.40;;;;;;;;;;1752455;80;26356;-32
2022/01/07 08:04:29;;;;;;;0.30;0.30;;;;;;;;;;1744024;80;26305;-38
2022/01/07 08:06:57;;;;;;;0.40;0.40;;;;;;;;;;1747942;80;26269;-31
2022/01/07 08:09:24;;;;;;;0.40;0.40;;;;;;;;;;1741242;80;26281;-33
2022/01/07 08:11:57;;;;;;;1.02;0.40;;;;;;;;;;1740984;80;26865;-31
2022/01/07 08:17:08;;;;;;;0.50;0.50;;;;;;;;;;1741816;80;26305;-35
2022/01/07 08:19:35;;;;;;;0.37;0.37;;;;;;;;;;1748133;80;26383;-37
2022/01/07 08:22:03;;;;;;;0.42;0.42;;;;;;;;;;1737739;80;26301;-44
2022/01/07 08:24:31;;;;;;;0.42;0.42;;;;;;;;;;1740634;80;26289;-34
2022/01/07 08:26:58;;;;;;;1.05;0.42;;;;;;;;;;1749078;80;26309;-33
2022/01/07 08:29:30;;;;;;;0.42;0.42;;;;;;;;;;1749041;79;26415;-33
2022/01/07 08:34:53;;;;;;;3.92;0.60;;;;;;;;;;1746320;80;26387;-35
2022/01/07 08:37:27;;;;;;;1.12;0.50;;;;;;;;;;1742782;80;26290;-37
2022/01/07 08:39:56;;;;;;;2.20;0.40;;;;;;;;;;1751980;80;26278;-31
2022/01/07 08:42:24;;;;;;;0.47;0.47;;;;;;;;;;1735842;80;26236;-33
2022/01/07 08:44:52;;;;;;;0.60;0.50;;;;;;;;;;1744623;80;26741;-31
2022/01/07 08:47:21;;;;;;;0.70;0.70;;;;;;;;;;1739233;80;26974;-33
2022/01/07 08:49:49;;;;;;;1.70;0.70;;;;;;;;;;1738581;81;26922;-32
2022/01/07 08:52:16;;;;;;;0.82;0.70;;;;;;;;;;1745540;80;26313;-34
2022/01/07 08:54:44;;;;;;;2.22;0.60;;;;;;;;;;1741702;80;26811;-35
2022/01/07 08:57:11;;;;;;;1.85;0.70;;;;;;;;;;1742997;82;26316;-31
2022/01/07 08:59:39;;;;;;;2.62;0.80;;;;;;;;;;1742681;80;26320;-34
2022/01/07 09:02:06;;;;;;;2.90;0.78;;;;;;;;;;1743554;80;26589;-37
2022/01/07 09:04:33;;;;;;;4.17;0.80;;;;;;;;;;1738965;80;26296;-32
2022/01/07 09:07:01;;;;;;;2.98;0.85;;;;;;;;;;1749150;82;26270;-33
2022/01/07 09:09:28;;;;;;;2.33;0.90;;;;;;;;;;1746731;80;26286;-33
2022/01/07 09:11:55;;;;;;;2.77;0.80;;;;;;;;;;1739844;80;26300;-35
2022/01/07 09:14:23;;;;;;;3.27;0.80;;;;;;;;;;1731312;80;26296;-32
2022/01/07 09:16:50;;;;;;;3.55;0.85;;;;;;;;;;1745459;80;26211;-31
2022/01/07 09:19:18;;;;;;;4.60;0.90;;;;;;;;;;1731028;80;26304;-31
2022/01/07 09:21:46;;;;;;;1.57;0.75;;;;;;;;;;1730556;80;26299;-33
2022/01/07 09:24:13;;;;;;;2.15;0.72;;;;;;;;;;1732131;80;26281;-33
2022/01/07 09:26:41;;;;;;;3.60;0.88;;;;;;;;;;1740784;80;26293;-33
2022/01/07 09:29:08;;;;;;;2.50;0.90;;;;;;;;;;1745191;82;26280;-36
2022/01/07 09:31:36;;;;;;;3.65;1.10;;;;;;;;;;1743259;79;26792;-32
2022/01/07 09:34:03;;;;;;;3.67;0.90;;;;;;;;;;1740121;80;26296;-36
2022/01/07 09:36:30;;;;;;;1.92;0.90;;;;;;;;;;1753725;80;26360;-36
2022/01/07 09:38:58;;;;;;;3.27;1.10;;;;;;;;;;1755819;80;26344;-35
2022/01/07 09:41:26;;;;;;;4.17;0.90;;;;;;;;;;1755086;80;26707;-32
2022/01/07 09:43:53;;;;;;;3.80;1.20;;;;;;;;;;1754466;80;26392;-32
2022/01/07 09:46:20;;;;;;;3.33;0.80;;;;;;;;;;1744962;82;26280;-36
2022/01/07 09:48:47;;;;;;;2.55;0.88;;;;;;;;;;1752111;80;26274;-31
2022/01/07 09:51:15;;;;;;;4.12;1.30;;;;;;;;;;1743627;80;28219;-32
2022/01/07 09:53:43;;;;;;;1.12;0.90;;;;;;;;;;1744945;82;26847;-36
2022/01/07 09:56:11;;;;;;;1.75;1.10;;;;;;;;;;1744984;80;26352;-34
2022/01/07 09:58:38;;;;;;;1.95;0.90;;;;;;;;;;1737595;80;26324;-35
2022/01/07 10:01:09;;;;;;;3.02;0.80;;;;;;;;;;1750586;80;26999;-36
2022/01/07 10:03:40;;;;;;;1.42;0.93;;;;;;;;;;1746811;80;26357;-35
2022/01/07 10:06:24;;;;;;;2.25;0.80;;;;;;;;;;1742745;80;26426;-35
2022/01/07 10:09:02;;;;;;;1.80;0.95;;;;;;;;;;1752745;80;27857;-32
2022/01/07 10:11:29;;;;;;;0.75;0.72;;;;;;;;;;1752509;79;26292;-33
2022/01/07 10:14:17;;;;;;;0.98;0.90;;;;;;;;;;1748151;80;26329;-34
2022/01/07 10:16:48;;;;;;;0.70;0.70;;;;;;;;;;1747468;81;27520;-35
2022/01/07 10:19:35;;;;;;;1.40;0.95;;;;;;;;;;1750731;80;26372;-35
2022/01/07 10:22:09;;;;;;;2.70;1.00;;;;;;;;;;1745021;80;26831;-35
2022/01/07 10:24:53;;;;;;;3.80;1.05;;;;;;;;;;1750076;82;26806;-36
2022/01/07 10:27:21;;;;;;;3.85;0.80;;;;;;;;;;1751505;80;26230;-35
2022/01/07 10:29:49;;;;;;;2.65;1.15;;;;;;;;;;1749761;81;27468;-36
2022/01/07 10:32:27;;;;;;;2.37;1.00;;;;;;;;;;1752774;80;26371;-35
2022/01/07 10:35:02;;;;;;;2.22;1.00;;;;;;;;;;1750984;80;26454;-35
2022/01/07 10:37:29;;;;;;;2.42;0.98;;;;;;;;;;1755501;80;26768;-35
2022/01/07 10:39:57;;;;;;;3.17;1.25;;;;;;;;;;1750836;80;26343;-37
2022/01/07 10:42:25;;;;;;;1.42;0.90;;;;;;;;;;1751563;80;26320;-35
2022/01/07 10:44:59;;;;;;;1.05;0.95;;;;;;;;;;1753252;80;26337;-34
2022/01/07 10:47:28;;;;;;;1.20;1.10;;;;;;;;;;1748767;81;26343;-37
2022/01/07 10:50:14;;;;;;;1.65;0.80;;;;;;;;;;1747252;80;26410;-39
2022/01/07 10:52:42;;;;;;;0.98;0.85;;;;;;;;;;1748308;80;26218;-35
2022/01/07 10:55:13;;;;;;;0.90;0.90;;;;;;;;;;1750713;80;26757;-36
2022/01/07 10:57:43;;;;;;;0.93;0.93;;;;;;;;;;1746721;80;26655;-36
2022/01/07 11:00:21;;;;;;;1.57;0.90;;;;;;;;;;1754641;80;26379;-35
2022/01/07 11:02:49;;;;;;;3.05;0.90;;;;;;;;;;1747093;80;26392;-35
2022/01/07 11:05:16;;;;;;;1.70;1.10;;;;;;;;;;1751860;80;26304;-38
2022/01/07 11:07:44;;;;;;;1.02;0.70;;;;;;;;;;1749218;80;26745;-35
2022/01/07 11:10:11;;;;;;;0.95;0.85;;;;;;;;;;1750142;80;26317;-36
2022/01/07 11:12:39;;;;;;;1.92;1.02;;;;;;;;;;1749076;80;26348;-36
2022/01/07 11:15:08;;;;;;;1.42;0.98;;;;;;;;;;1749756;80;26258;-35
2022/01/07 11:17:36;;;;;;;1.10;1.00;;;;;;;;;;1748075;80;26753;-35
2022/01/07 11:20:05;;;;;;;1.37;1.00;;;;;;;;;;1746975;82;26284;-34
2022/01/07 11:22:38;;;;;;;2.47;1.00;;;;;;;;;;1749918;80;26356;-35
2022/01/07 11:25:07;;;;;;;0.82;0.82;;;;;;;;;;1750667;80;27151;-36
2022/01/07 11:27:48;;;;;;;1.10;1.10;;;;;;;;;;1747137;82;26375;-34
2022/01/07 11:30:18;;;;;;;0.90;0.90;;;;;;;;;;1747188;80;26388;-34
2022/01/07 11:32:46;;;;;;;1.00;1.00;;;;;;;;;;1763979;80;26821;-36
2022/01/07 11:35:21;;;;;;;0.82;0.82;;;;;;;;;;1767437;80;26319;-34
2022/01/07 11:37:53;;;;;;;1.95;0.80;;;;;;;;;;1761282;80;26627;-35
2022/01/07 11:40:31;;;;;;;0.80;0.80;;;;;;;;;;1763432;80;26299;-34
2022/01/07 11:42:59;;;;;;;1.32;0.93;;;;;;;;;;1763111;80;26315;-35
2022/01/07 11:45:28;;;;;;;0.85;0.85;;;;;;;;;;1763842;80;26350;-36
2022/01/07 11:47:57;;;;;;;0.90;0.90;;;;;;;;;;1763701;80;26315;-37
2022/01/07 11:50:25;;;;;;;0.78;0.72;;;;;;;;;;1762285;80;26330;-36
2022/01/07 11:52:57;;;;;;;0.80;0.80;;;;;;;;;;1765470;80;26515;-35
2022/01/07 11:55:26;;;;;;;0.75;0.75;;;;;;;;;;1764076;80;26347;-34
2022/01/07 11:57:55;;;;;;;0.70;0.70;;;;;;;;;;1767919;80;26292;-36
2022/01/07 12:00:41;;;;;;;0.80;0.80;;;;;;;;;;1766105;79;26051;-34
2022/01/07 12:03:08;;;;;;;0.80;0.80;;;;;;;;;;1763968;80;26283;-35
2022/01/07 12:05:36;;;;;;;0.72;0.72;;;;;;;;;;1761125;80;26657;-35
2022/01/07 12:08:03;;;;;;;0.80;0.80;;;;;;;;;;1765037;80;26370;-34
2022/01/07 12:10:31;;;;;;;0.80;0.80;;;;;;;;;;1766524;79;26307;-35
2022/01/07 12:13:00;;;;;;;0.85;0.85;;;;;;;;;;1762104;80;26397;-35
2022/01/07 12:15:28;;;;;;;0.70;0.70;;;;;;;;;;1762816;80;26311;-36
2022/01/07 12:17:56;;;;;;;0.80;0.80;;;;;;;;;;1763481;80;26349;-35
2022/01/07 12:20:25;;;;;;;0.80;0.80;;;;;;;;;;1758325;81;26364;-36
2022/01/07 12:22:53;;;;;;;1.17;0.88;;;;;;;;;;1764179;80;26275;-34
2022/01/07 12:25:22;;;;;;;0.70;0.70;;;;;;;;;;1765571;79;27358;-35
2022/01/07 12:27:51;;;;;;;0.75;0.75;;;;;;;;;;1761438;80;26758;-35
2022/01/07 12:30:18;;;;;;;0.72;0.70;;;;;;;;;;1764425;80;26367;-36
2022/01/07 12:32:45;;;;;;;0.80;0.80;;;;;;;;;;1764441;80;26365;-35
2022/01/07 12:35:12;;;;;;;0.70;0.70;;;;;;;;;;1766310;80;26660;-34
2022/01/07 12:37:40;;;;;;;0.65;0.65;;;;;;;;;;1769156;79;26713;-36
2022/01/07 12:40:09;;;;;;;0.60;0.60;;;;;;;;;;1762157;80;26307;-43
2022/01/07 12:42:40;;;;;;;0.60;0.60;;;;;;;;;;1765619;80;26853;-35
2022/01/07 12:45:09;;;;;;;0.60;0.60;;;;;;;;;;1764677;80;26318;-36
2022/01/07 12:47:37;;;;;;;0.80;0.80;;;;;;;;;;1762989;80;26349;-34
2022/01/07 12:50:05;;;;;;;0.60;0.60;;;;;;;;;;1762494;80;26283;-33
2022/01/07 12:52:34;;;;;;;0.70;0.70;;;;;;;;;;1764700;80;26287;-34
2022/01/07 12:55:12;;;;;;;0.53;0.53;;;;;;;;;;1760907;80;26318;-36
2022/01/07 12:57:46;;;;;;;0.70;0.70;;;;;;;;;;1761440;80;26723;-38
2022/01/07 13:00:11;;;;;;;0.70;0.70;;;;;;;;;;1769080;79;26627;-34
2022/01/07 13:02:40;;;;;;;0.70;0.70;;;;;;;;;;1762232;80;26747;-34
2022/01/07 13:05:15;;;;;;;0.57;0.57;;;;;;;;;;1764638;80;26315;-35
2022/01/07 13:07:43;;;;;;;0.70;0.70;;;;;;;;;;1765031;80;26763;-36
2022/01/07 13:10:11;;;;;;;0.75;0.70;;;;;;;;;;1766410;79;26323;-36
2022/01/07 13:12:39;;;;;;;0.62;0.62;;;;;;;;;;1762701;80;26353;-36
2022/01/07 13:15:07;;;;;;;0.70;0.70;;;;;;;;;;1767674;80;26267;-34
2022/01/07 13:17:35;;;;;;;0.60;0.60;;;;;;;;;;1763559;80;26845;-36
2022/01/07 13:20:02;;;;;;;0.70;0.70;;;;;;;;;;1763742;80;26318;-35
2022/01/07 13:22:31;;;;;;;0.55;0.55;;;;;;;;;;1765929;80;26287;-36
2022/01/07 13:24:58;;;;;;;0.95;0.62;;;;;;;;;;1762566;80;26319;-35
2022/01/07 13:27:25;;;;;;;0.70;0.70;;;;;;;;;;1766111;80;26679;-35
2022/01/07 13:29:55;;;;;;;0.72;0.72;;;;;;;;;;1763443;80;26283;-36
2022/01/07 13:32:23;;;;;;;0.65;0.65;;;;;;;;;;1764110;80;27006;-34
2022/01/07 13:34:51;;;;;;;0.80;0.80;;;;;;;;;;1767007;80;26749;-35
2022/01/07 13:37:19;;;;;;;0.70;0.70;;;;;;;;;;1764847;80;26877;-34
2022/01/07 13:39:51;;;;;;;0.62;0.62;;;;;;;;;;1761756;80;26165;-36
2022/01/07 13:42:23;;;;;;;0.60;0.60;;;;;;;;;;1765299;81;26318;-36
2022/01/07 13:44:52;;;;;;;0.70;0.70;;;;;;;;;;1764721;80;26244;-35
2022/01/07 13:47:27;;;;;;;0.60;0.60;;;;;;;;;;1764887;80;26837;-34
2022/01/07 13:50:03;;;;;;;0.60;0.60;;;;;;;;;;1766192;81;27285;-34
2022/01/07 13:52:29;;;;;;;0.80;0.80;;;;;;;;;;1763014;80;26370;-35
2022/01/07 13:54:57;;;;;;;0.70;0.70;;;;;;;;;;1765239;80;26369;-34
2022/01/07 13:57:25;;;;;;;0.75;0.75;;;;;;;;;;1760165;80;26267;-34
2022/01/07 13:59:54;;;;;;;0.70;0.70;;;;;;;;;;1766757;79;26349;-36
2022/01/07 14:02:26;;;;;;;0.53;0.53;;;;;;;;;;1759081;80;26295;-36
2022/01/07 14:04:56;;;;;;;0.60;0.60;;;;;;;;;;1768512;80;26334;-35
2022/01/07 14:07:25;;;;;;;0.72;0.72;;;;;;;;;;1760308;79;26326;-34
2022/01/07 14:10:00;;;;;;;0.60;0.60;;;;;;;;;;1763903;79;26232;-36
2022/01/07 14:12:27;;;;;;;0.70;0.70;;;;;;;;;;1760666;79;26304;-35
2022/01/07 14:15:08;;;;;;;0.80;0.80;;;;;;;;;;1762221;79;26279;-35
2022/01/07 14:17:37;;;;;;;0.70;0.70;;;;;;;;;;1763716;80;26304;-36
2022/01/07 14:20:05;;;;;;;0.70;0.70;;;;;;;;;;1761741;79;26276;-34
2022/01/07 14:22:41;;;;;;;0.62;0.62;;;;;;;;;;1764618;80;27512;-35
2022/01/07 14:25:04;;;;;;;0.80;0.80;;;;;;;;;;1760178;79;26361;-35
2022/01/07 14:27:33;;;;;;;0.65;0.65;;;;;;;;;;1764553;79;26802;-34
2022/01/07 14:30:02;;;;;;;0.88;0.88;;;;;;;;;;1760133;79;26279;-35
2022/01/07 14:32:30;;;;;;;0.80;0.80;;;;;;;;;;1756109;79;26287;-35
2022/01/07 14:34:59;;;;;;;0.80;0.80;;;;;;;;;;1755232;79;26293;-34
2022/01/07 14:37:27;;;;;;;0.80;0.80;;;;;;;;;;1757947;79;26294;-35
2022/01/07 14:39:55;;;;;;;1.10;1.00;;;;;;;;;;1762856;79;26365;-36
2022/01/07 14:42:23;;;;;;;0.80;0.80;;;;;;;;;;1760379;80;26268;-36
2022/01/07 14:44:51;;;;;;;1.00;0.75;;;;;;;;;;1761335;80;26280;-35
2022/01/07 14:47:19;;;;;;;0.85;0.85;;;;;;;;;;1761526;80;26350;-34
2022/01/07 14:49:48;;;;;;;0.80;0.80;;;;;;;;;;1765367;80;26349;-35
2022/01/07 14:52:16;;;;;;;0.72;0.72;;;;;;;;;;1761810;80;26330;-34
2022/01/07 14:54:43;;;;;;;0.80;0.80;;;;;;;;;;1765488;80;26295;-35
2022/01/07 14:57:12;;;;;;;0.93;0.90;;;;;;;;;;1762508;79;26369;-34